Time;durP1;ratioP1;P1;durP2;ratioP2;P2;SDS_P1;SDS_P2;PMS_P1;PMS_P2;Temp;Humidity;BMP_temperature;BMP_pressure;BME280_temperature;BME280_humidity;BME280_pressure;Samples;Min_cycle;Max_cycle;Signal;HPM_P1;HPM_P2
2022/09/05 00:01:12;;;;;;;;;;;20.40;94.60;;;;;;5066860;28;20347;-46
2022/09/05 00:03:57;;;;;;;;;;;20.40;94.50;;;;;;5069991;28;19920;-49
2022/09/05 00:06:24;;;;;;;;;;;20.30;94.70;;;;;;5069451;28;19987;-47
2022/09/05 00:08:52;;;;;;;;;;;20.20;94.90;;;;;;5069593;28;19966;-48
2022/09/05 00:11:38;;;;;;;;;;;20.20;94.80;;;;;;5051328;28;19916;-47
2022/09/05 00:14:22;;;;;;;;;;;20.30;94.90;;;;;;5069498;28;19924;-45
2022/09/05 00:16:54;;;;;;;;;;;20.20;94.90;;;;;;5069018;28;20150;-48
2022/09/05 00:19:23;;;;;;;;;;;20.10;95.10;;;;;;5069484;28;19920;-48
2022/09/05 00:22:07;;;;;;;;;;;20.10;95.10;;;;;;5069321;28;19943;-45
2022/09/05 00:24:39;;;;;;;;;;;20.10;95.20;;;;;;5069004;28;20012;-49
2022/09/05 00:27:12;;;;;;;;;;;20.10;95.20;;;;;;5068828;28;19917;-47
2022/09/05 00:29:47;;;;;;;;;;;20.00;95.30;;;;;;5068994;28;19927;-48
2022/09/05 00:32:19;;;;;;;;;;;20.00;95.40;;;;;;5069492;28;19916;-45
2022/09/05 00:34:47;;;;;;;;;;;19.90;95.50;;;;;;5069095;28;19972;-48
2022/09/05 00:37:24;;;;;;;;;;;19.90;95.60;;;;;;5068875;28;19963;-49
2022/09/05 00:39:49;;;;;;;;;;;19.90;95.70;;;;;;5069253;28;19926;-46
2022/09/05 00:42:16;;;;;;;;;;;19.80;95.70;;;;;;5069554;28;19920;-48
2022/09/05 00:45:00;;;;;;;;;;;19.80;95.80;;;;;;5069410;28;19966;-48
2022/09/05 00:47:32;;;;;;;;;;;19.80;95.80;;;;;;5068923;28;19916;-49
2022/09/05 00:50:05;;;;;;;;;;;19.80;96.00;;;;;;5069081;28;19928;-47
2022/09/05 00:52:35;;;;;;;;;;;19.70;96.00;;;;;;5069294;28;20260;-47
2022/09/05 00:55:13;;;;;;;;;;;19.60;96.10;;;;;;5071150;28;19920;-47
2022/09/05 00:57:54;;;;;;;;;;;19.60;96.20;;;;;;5072022;28;19971;-47
2022/09/05 01:00:24;;;;;;;;;;;19.70;96.20;;;;;;5072965;28;20278;-50
2022/09/05 01:03:09;;;;;;;;;;;19.60;96.20;;;;;;5072437;28;19924;-48
2022/09/05 01:05:38;;;;;;;;;;;19.60;96.30;;;;;;5050996;28;20477;-46
2022/09/05 01:08:19;;;;;;;;;;;19.50;96.40;;;;;;5070835;28;19923;-47
2022/09/05 01:10:50;;;;;;;;;;;19.50;96.50;;;;;;5072144;28;19920;-50
2022/09/05 01:13:18;;;;;;;;;;;19.50;96.60;;;;;;5072942;28;19923;-51
2022/09/05 01:15:44;;;;;;;;;;;19.40;96.70;;;;;;5070620;28;19928;-46
2022/09/05 01:18:12;;;;;;;;;;;19.40;96.70;;;;;;5071937;28;19920;-47
2022/09/05 01:20:56;;;;;;;;;;;19.40;96.80;;;;;;5072397;28;19928;-46
2022/09/05 01:23:25;;;;;;;;;;;19.40;96.90;;;;;;5072567;28;19942;-47
2022/09/05 01:25:50;;;;;;;;;;;19.30;96.80;;;;;;5071524;28;19920;-47
2022/09/05 01:28:22;;;;;;;;;;;19.30;96.90;;;;;;5072318;28;19985;-46
2022/09/05 01:30:54;;;;;;;;;;;19.30;97.00;;;;;;5072215;28;19920;-47
2022/09/05 01:33:43;;;;;;;;;;;19.20;97.00;;;;;;5071883;28;19927;-50
2022/09/05 01:36:38;;;;;;;;;;;19.20;97.10;;;;;;5065686;28;20015;-48
2022/09/05 01:39:03;;;;;;;;;;;19.20;97.10;;;;;;5062344;28;19931;-48
2022/09/05 01:41:29;;;;;;;;;;;19.20;97.30;;;;;;5072250;28;20554;-48
2022/09/05 01:43:54;;;;;;;;;;;19.10;97.30;;;;;;5071907;28;19916;-49
2022/09/05 01:46:42;;;;;;;;;;;19.10;97.30;;;;;;5070271;28;19920;-46
2022/09/05 01:49:24;;;;;;;;;;;19.10;97.30;;;;;;5071589;28;19920;-45
2022/09/05 01:51:50;;;;;;;;;;;19.10;97.40;;;;;;5071518;28;19920;-47
2022/09/05 01:54:16;;;;;;;;;;;19.00;97.50;;;;;;5071092;28;19929;-45
2022/09/05 01:56:52;;;;;;;;;;;19.00;97.50;;;;;;5070799;28;19920;-48
2022/09/05 01:59:32;;;;;;;;;;;18.90;97.60;;;;;;5071303;28;19966;-47
2022/09/05 02:02:01;;;;;;;;;;;18.90;97.70;;;;;;5071472;28;19920;-48
2022/09/05 02:04:42;;;;;;;;;;;18.90;97.80;;;;;;5071441;28;19920;-50
2022/09/05 02:07:07;;;;;;;;;;;18.80;97.80;;;;;;5071058;28;20391;-48
2022/09/05 02:09:33;;;;;;;;;;;18.80;97.80;;;;;;5071145;28;19925;-47
2022/09/05 02:12:05;;;;;;;;;;;18.70;97.90;;;;;;5070203;28;19920;-46
2022/09/05 02:14:31;;;;;;;;;;;18.70;98.10;;;;;;5069845;28;20454;-47
2022/09/05 02:17:07;;;;;;;;;;;18.70;98.20;;;;;;5071271;28;20006;-50
2022/09/05 02:19:40;;;;;;;;;;;18.70;98.20;;;;;;5071248;28;20372;-47
2022/09/05 02:22:09;;;;;;;;;;;18.60;98.40;;;;;;5071239;28;19920;-49
2022/09/05 02:24:36;;;;;;;;;;;18.60;98.30;;;;;;5071192;28;19916;-48
2022/09/05 02:27:11;;;;;;;;;;;18.60;98.40;;;;;;5070459;28;19921;-47
2022/09/05 02:29:46;;;;;;;;;;;18.60;98.50;;;;;;5070290;28;19951;-48
2022/09/05 02:32:23;;;;;;;;;;;18.60;98.40;;;;;;5069295;28;19916;-47
2022/09/05 02:34:55;;;;;;;;;;;18.50;98.60;;;;;;5070738;28;19931;-45
2022/09/05 02:37:24;;;;;;;;;;;18.50;98.80;;;;;;5070730;28;19920;-49
2022/09/05 02:39:51;;;;;;;;;;;18.40;98.80;;;;;;5070308;28;20228;-47
2022/09/05 02:42:26;;;;;;;;;;;18.40;98.90;;;;;;5069564;28;19924;-49
2022/09/05 02:44:58;;;;;;;;;;;18.40;99.00;;;;;;5070779;28;20366;-47
2022/09/05 02:47:29;;;;;;;;;;;18.40;99.00;;;;;;5070649;28;20066;-48
2022/09/05 02:50:06;;;;;;;;;;;18.30;99.00;;;;;;5070511;28;20440;-48
2022/09/05 02:52:33;;;;;;;;;;;18.30;99.30;;;;;;5070825;28;19955;-48
2022/09/05 02:54:59;;;;;;;;;;;18.30;99.10;;;;;;5069964;28;19929;-47
2022/09/05 02:57:41;;;;;;;;;;;18.30;99.10;;;;;;5069506;28;20058;-49
2022/09/05 03:00:10;;;;;;;;;;;18.30;99.20;;;;;;5068812;28;20015;-46
2022/09/05 03:02:42;;;;;;;;;;;18.30;99.60;;;;;;5070554;28;19977;-47
2022/09/05 03:05:15;;;;;;;;;;;18.30;99.40;;;;;;5070478;28;19924;-48
2022/09/05 03:07:59;;;;;;;;;;;18.20;99.50;;;;;;5069824;28;20389;-49
2022/09/05 03:10:37;;;;;;;;;;;18.20;99.60;;;;;;5069575;28;20291;-48
2022/09/05 03:13:08;;;;;;;;;;;18.10;99.70;;;;;;5070441;28;20006;-47
2022/09/05 03:15:40;;;;;;;;;;;18.10;99.70;;;;;;5069697;28;19943;-46
2022/09/05 03:18:05;;;;;;;;;;;18.10;99.70;;;;;;5069458;28;20011;-47
2022/09/05 03:20:34;;;;;;;;;;;18.10;99.70;;;;;;5069972;28;20010;-45
2022/09/05 03:23:13;;;;;;;;;;;18.10;99.80;;;;;;5070519;28;20285;-50
2022/09/05 03:25:57;;;;;;;;;;;18.10;99.90;;;;;;5069331;28;20010;-45
2022/09/05 03:28:25;;;;;;;;;;;18.00;99.90;;;;;;5070140;28;20302;-50
2022/09/05 03:31:03;;;;;;;;;;;18.00;99.90;;;;;;5069753;28;19916;-48
2022/09/05 03:33:37;;;;;;;;;;;18.00;99.90;;;;;;5069837;28;20364;-48
2022/09/05 03:36:21;;;;;;;;;;;18.00;99.90;;;;;;5069354;28;19924;-48
2022/09/05 03:38:50;;;;;;;;;;;18.00;99.90;;;;;;5070331;28;20424;-47
2022/09/05 03:41:15;;;;;;;;;;;17.90;99.90;;;;;;5069767;28;19916;-47
2022/09/05 03:43:50;;;;;;;;;;;17.90;99.90;;;;;;5069954;28;19920;-46
2022/09/05 03:46:34;;;;;;;;;;;17.80;99.90;;;;;;5069423;28;19917;-46
2022/09/05 03:49:17;;;;;;;;;;;17.90;99.90;;;;;;5069628;28;19959;-48
2022/09/05 03:51:49;;;;;;;;;;;17.80;99.90;;;;;;5069418;28;19920;-47
2022/09/05 03:54:33;;;;;;;;;;;17.90;99.90;;;;;;5069899;28;19932;-45
2022/09/05 03:57:14;;;;;;;;;;;17.80;99.90;;;;;;5069014;28;19926;-51
2022/09/05 03:59:46;;;;;;;;;;;17.90;99.90;;;;;;5069536;28;20007;-45
2022/09/05 04:02:15;;;;;;;;;;;17.80;99.90;;;;;;5069661;28;19923;-49
2022/09/05 04:04:40;;;;;;;;;;;17.80;99.90;;;;;;5069541;28;19917;-50
2022/09/05 04:07:09;;;;;;;;;;;17.70;99.90;;;;;;5067490;28;19974;-49
2022/09/05 04:09:44;;;;;;;;;;;17.70;99.90;;;;;;5069880;28;19916;-47
2022/09/05 04:12:16;;;;;;;;;;;17.70;99.90;;;;;;5069717;28;19920;-49
2022/09/05 04:14:45;;;;;;;;;;;17.70;99.90;;;;;;5069060;28;20425;-48
2022/09/05 04:17:28;;;;;;;;;;;17.60;99.90;;;;;;5069267;28;20340;-46
2022/09/05 04:20:09;;;;;;;;;;;17.60;99.90;;;;;;5069057;28;19920;-49
2022/09/05 04:22:49;;;;;;;;;;;17.70;99.90;;;;;;5069902;28;20386;-48
2022/09/05 04:25:20;;;;;;;;;;;17.60;99.90;;;;;;5068976;28;19924;-49
2022/09/05 04:27:57;;;;;;;;;;;17.70;99.90;;;;;;5069130;28;19920;-50
2022/09/05 04:30:41;;;;;;;;;;;17.60;99.90;;;;;;5072533;28;20367;-48
2022/09/05 04:33:27;;;;;;;;;;;17.60;99.90;;;;;;5073238;28;19920;-47
2022/09/05 04:36:12;;;;;;;;;;;17.60;99.90;;;;;;5071300;28;20018;-46
2022/09/05 04:38:38;;;;;;;;;;;17.50;99.90;;;;;;5073075;28;19920;-50
2022/09/05 04:41:09;;;;;;;;;;;17.60;99.90;;;;;;5073156;28;19920;-48
2022/09/05 04:43:53;;;;;;;;;;;17.50;99.90;;;;;;5073100;28;19927;-48
2022/09/05 04:46:25;;;;;;;;;;;17.60;99.90;;;;;;5072482;28;19928;-48
2022/09/05 04:48:53;;;;;;;;;;;17.50;99.90;;;;;;5072796;28;19966;-46
2022/09/05 04:51:28;;;;;;;;;;;17.50;99.90;;;;;;5073186;28;19924;-48
2022/09/05 04:53:59;;;;;;;;;;;17.50;99.90;;;;;;5073009;28;20291;-49
2022/09/05 04:56:26;;;;;;;;;;;17.40;99.90;;;;;;5072115;28;19924;-49
2022/09/05 04:59:04;;;;;;;;;;;17.40;99.90;;;;;;5073018;28;19921;-50
2022/09/05 05:01:38;;;;;;;;;;;17.50;99.90;;;;;;5071291;28;19917;-47
2022/09/05 05:04:05;;;;;;;;;;;17.50;99.90;;;;;;5072718;28;19920;-46
2022/09/05 05:06:37;;;;;;;;;;;17.40;99.90;;;;;;5072258;28;20359;-52
2022/09/05 05:09:21;;;;;;;;;;;17.40;99.90;;;;;;5072757;28;19962;-47
2022/09/05 05:11:50;;;;;;;;;;;17.40;99.90;;;;;;5072697;28;19989;-50
2022/09/05 05:14:31;;;;;;;;;;;17.40;99.90;;;;;;5072510;28;19924;-49
2022/09/05 05:17:05;;;;;;;;;;;17.30;99.90;;;;;;5072371;28;19916;-49
2022/09/05 05:19:35;;;;;;;;;;;17.30;99.90;;;;;;5072480;28;20427;-47
2022/09/05 05:22:03;;;;;;;;;;;17.30;99.90;;;;;;5072818;28;19928;-46
2022/09/05 05:24:31;;;;;;;;;;;17.30;99.90;;;;;;5072371;28;19920;-50
2022/09/05 05:27:02;;;;;;;;;;;17.30;99.90;;;;;;5071501;28;20360;-50
2022/09/05 05:29:46;;;;;;;;;;;17.30;99.90;;;;;;5072124;28;19924;-45
2022/09/05 05:32:17;;;;;;;;;;;17.30;99.90;;;;;;5072239;28;19916;-49
2022/09/05 05:34:45;;;;;;;;;;;17.30;99.90;;;;;;5072120;28;19928;-47
2022/09/05 05:37:13;;;;;;;;;;;17.30;99.90;;;;;;5071853;28;20346;-45
2022/09/05 05:39:43;;;;;;;;;;;17.30;99.90;;;;;;5071513;28;19920;-45
2022/09/05 05:42:24;;;;;;;;;;;17.30;99.90;;;;;;5072066;28;20316;-50
2022/09/05 05:44:51;;;;;;;;;;;17.30;99.90;;;;;;5072130;28;20002;-49
2022/09/05 05:47:24;;;;;;;;;;;17.20;99.90;;;;;;5071429;28;20363;-49
2022/09/05 05:50:06;;;;;;;;;;;17.20;99.90;;;;;;5071480;28;19921;-48
2022/09/05 05:52:31;;;;;;;;;;;17.20;99.90;;;;;;5071898;28;19968;-49
2022/09/05 05:55:03;;;;;;;;;;;17.20;99.90;;;;;;5070354;28;19971;-49
2022/09/05 05:57:44;;;;;;;;;;;17.20;99.90;;;;;;5070593;28;20017;-49
2022/09/05 06:00:19;;;;;;;;;;;17.20;99.90;;;;;;5071583;28;19928;-45
2022/09/05 06:02:59;;;;;;;;;;;17.20;99.90;;;;;;5071487;28;19951;-47
2022/09/05 06:05:43;;;;;;;;;;;17.30;99.90;;;;;;5071576;28;19916;-47
2022/09/05 06:08:38;;;;;;;;;;;17.40;99.90;;;;;;5071127;28;20007;-45
2022/09/05 06:11:22;;;;;;;;;;;17.50;99.90;;;;;;5061947;28;19920;-47
2022/09/05 06:14:13;;;;;;;;;;;17.60;99.90;;;;;;5071068;28;19952;-46
2022/09/05 06:16:58;;;;;;;;;;;17.60;99.90;;;;;;5071279;28;20024;-46
2022/09/05 06:19:28;;;;;;;;;;;17.60;99.90;;;;;;5071386;28;19927;-45
2022/09/05 06:21:56;;;;;;;;;;;17.60;99.90;;;;;;5071081;28;19920;-48
2022/09/05 06:24:25;;;;;;;;;;;17.60;99.90;;;;;;5070609;28;19963;-45
2022/09/05 06:26:58;;;;;;;;;;;17.70;99.90;;;;;;5070222;28;20202;-47
2022/09/05 06:29:33;;;;;;;;;;;17.70;99.90;;;;;;5070662;28;19920;-47
2022/09/05 06:32:03;;;;;;;;;;;17.70;99.90;;;;;;5071183;28;19916;-46
2022/09/05 06:34:34;;;;;;;;;;;17.80;99.90;;;;;;5070670;28;20021;-45
2022/09/05 06:37:14;;;;;;;;;;;17.80;99.90;;;;;;5070562;28;19981;-45
2022/09/05 06:39:58;;;;;;;;;;;17.80;99.90;;;;;;5070645;28;19916;-50
2022/09/05 06:43:03;;;;;;;;;;;17.90;99.90;;;;;;5070665;28;19928;-48
2022/09/05 06:45:36;;;;;;;;;;;18.00;99.90;;;;;;5028420;28;19917;-49
2022/09/05 06:48:11;;;;;;;;;;;18.10;99.90;;;;;;5027921;28;20019;-45
2022/09/05 06:51:06;;;;;;;;;;;18.20;99.90;;;;;;5052493;28;19924;-46
2022/09/05 06:53:47;;;;;;;;;;;18.30;99.90;;;;;;5032911;28;20031;-48
2022/09/05 06:56:19;;;;;;;;;;;18.40;99.90;;;;;;5069678;28;20026;-46
2022/09/05 06:58:56;;;;;;;;;;;18.60;99.90;;;;;;5070337;28;19924;-46
2022/09/05 07:01:26;;;;;;;;;;;18.60;99.90;;;;;;5070428;28;19920;-46
2022/09/05 07:04:01;;;;;;;;;;;18.80;99.90;;;;;;5068439;28;19998;-46
2022/09/05 07:06:36;;;;;;;;;;;18.80;99.90;;;;;;5070808;28;19920;-45
2022/09/05 07:09:06;;;;;;;;;;;19.00;99.90;;;;;;5069346;28;20010;-52
2022/09/05 07:11:35;;;;;;;;;;;19.00;99.90;;;;;;5071106;28;19923;-49
2022/09/05 07:14:16;;;;;;;;;;;19.20;99.90;;;;;;5070144;28;19920;-48
2022/09/05 07:16:48;;;;;;;;;;;19.30;99.90;;;;;;5069785;28;19959;-50
2022/09/05 07:19:26;;;;;;;;;;;19.40;99.90;;;;;;5070060;28;19999;-48
2022/09/05 07:22:12;;;;;;;;;;;19.50;99.90;;;;;;5070261;28;19917;-47
2022/09/05 07:24:40;;;;;;;;;;;19.60;99.90;;;;;;5070326;28;19920;-47
2022/09/05 07:27:07;;;;;;;;;;;19.80;99.90;;;;;;5069357;28;19941;-49
2022/09/05 07:29:39;;;;;;;;;;;19.90;99.90;;;;;;5069799;28;19916;-46
2022/09/05 07:32:05;;;;;;;;;;;20.00;99.90;;;;;;5070135;28;19920;-47
2022/09/05 07:34:33;;;;;;;;;;;20.10;99.90;;;;;;5070028;28;19931;-49
2022/09/05 07:37:07;;;;;;;;;;;20.20;99.90;;;;;;5070080;28;20379;-49
2022/09/05 07:39:37;;;;;;;;;;;20.20;99.90;;;;;;5068113;28;19923;-46
2022/09/05 07:42:04;;;;;;;;;;;20.30;99.90;;;;;;5070231;28;19966;-46
2022/09/05 07:44:42;;;;;;;;;;;20.50;99.90;;;;;;5069785;28;19923;-51
2022/09/05 07:47:19;;;;;;;;;;;20.60;99.90;;;;;;5069364;28;19923;-49
2022/09/05 07:49:45;;;;;;;;;;;20.70;99.90;;;;;;5069573;28;19928;-45
2022/09/05 07:52:13;;;;;;;;;;;20.80;99.90;;;;;;5069997;28;19920;-47
2022/09/05 07:54:40;;;;;;;;;;;21.00;99.90;;;;;;5069494;28;19924;-49
2022/09/05 07:57:10;;;;;;;;;;;21.10;99.90;;;;;;5068996;28;19916;-45
2022/09/05 07:59:39;;;;;;;;;;;21.20;99.90;;;;;;5069574;28;20303;-47
2022/09/05 08:02:07;;;;;;;;;;;21.30;99.90;;;;;;5069651;28;19965;-47
2022/09/05 08:04:33;;;;;;;;;;;21.40;99.90;;;;;;5073120;28;20058;-45
2022/09/05 08:07:01;;;;;;;;;;;21.50;99.90;;;;;;5073720;28;19975;-48
2022/09/05 08:09:33;;;;;;;;;;;21.60;99.90;;;;;;5073663;28;20315;-48
2022/09/05 08:12:04;;;;;;;;;;;21.70;99.90;;;;;;5073426;28;19917;-48
2022/09/05 08:14:53;;;;;;;;;;;21.70;99.90;;;;;;5073655;28;19931;-46
2022/09/05 08:17:20;;;;;;;;;;;21.80;99.90;;;;;;5071609;28;19924;-45
2022/09/05 08:20:10;;;;;;;;;;;21.90;99.90;;;;;;5073744;28;20367;-46
2022/09/05 08:22:47;;;;;;;;;;;21.90;99.90;;;;;;5073289;28;19916;-48
2022/09/05 08:25:15;;;;;;;;;;;22.00;99.90;;;;;;5055494;28;19927;-47
2022/09/05 08:27:44;;;;;;;;;;;22.20;99.90;;;;;;5072822;28;19920;-48
2022/09/05 08:30:10;;;;;;;;;;;22.20;99.90;;;;;;5073540;28;19924;-47
2022/09/05 08:32:47;;;;;;;;;;;22.40;99.90;;;;;;5073464;28;19916;-48
2022/09/05 08:35:23;;;;;;;;;;;22.50;99.80;;;;;;5073341;28;20321;-46
2022/09/05 08:37:49;;;;;;;;;;;22.50;99.70;;;;;;5072645;28;19928;-47
2022/09/05 08:40:37;;;;;;;;;;;22.50;99.90;;;;;;5073150;28;20021;-47
2022/09/05 08:43:35;;;;;;;;;;;22.80;99.60;;;;;;5073059;28;20018;-49
2022/09/05 08:46:07;;;;;;;;;;;22.80;99.80;;;;;;5038224;28;19968;-49
2022/09/05 08:48:39;;;;;;;;;;;23.00;99.50;;;;;;5072802;28;19920;-46
2022/09/05 08:51:10;;;;;;;;;;;23.00;99.30;;;;;;5073083;28;20008;-49
2022/09/05 08:53:55;;;;;;;;;;;23.10;99.40;;;;;;5072642;28;19971;-48
2022/09/05 08:56:22;;;;;;;;;;;23.20;99.10;;;;;;5072062;28;19921;-50
2022/09/05 08:58:53;;;;;;;;;;;23.60;98.70;;;;;;5072794;28;19916;-48
2022/09/05 09:01:26;;;;;;;;;;;23.70;98.50;;;;;;5072920;28;20383;-46
2022/09/05 09:04:06;;;;;;;;;;;23.90;98.20;;;;;;5072519;28;19920;-47
2022/09/05 09:06:56;;;;;;;;;;;24.00;98.50;;;;;;5072356;28;20019;-46
2022/09/05 09:09:41;;;;;;;;;;;24.40;97.90;;;;;;5072866;28;20359;-47
2022/09/05 09:12:28;;;;;;;;;;;24.50;97.00;;;;;;5072638;28;19924;-46
2022/09/05 09:14:57;;;;;;;;;;;24.40;97.20;;;;;;5071607;28;19932;-47
2022/09/05 09:17:38;;;;;;;;;;;24.60;97.30;;;;;;5072068;28;20425;-47
2022/09/05 09:20:09;;;;;;;;;;;25.00;96.30;;;;;;5072444;28;19952;-46
2022/09/05 09:22:50;;;;;;;;;;;25.20;96.30;;;;;;5072523;28;19960;-48
2022/09/05 09:25:23;;;;;;;;;;;25.40;95.60;;;;;;5070678;28;19916;-46
2022/09/05 09:27:48;;;;;;;;;;;25.40;95.30;;;;;;5071537;28;19971;-48
2022/09/05 09:30:14;;;;;;;;;;;25.30;95.60;;;;;;5072628;28;19974;-47
2022/09/05 09:32:43;;;;;;;;;;;25.70;95.20;;;;;;5070909;28;19927;-47
2022/09/05 09:35:24;;;;;;;;;;;25.70;94.90;;;;;;5072193;28;19931;-48
2022/09/05 09:38:08;;;;;;;;;;;25.80;94.40;;;;;;5072213;28;19924;-49
2022/09/05 09:40:43;;;;;;;;;;;25.90;94.30;;;;;;5072157;28;20367;-50
2022/09/05 09:43:16;;;;;;;;;;;26.00;93.40;;;;;;5071378;28;20299;-46
2022/09/05 09:45:56;;;;;;;;;;;26.10;94.10;;;;;;5071792;28;19974;-49
2022/09/05 09:48:37;;;;;;;;;;;26.10;93.20;;;;;;5071514;28;19982;-47
2022/09/05 09:51:18;;;;;;;;;;;26.10;93.40;;;;;;5071761;28;20681;-47
2022/09/05 09:53:52;;;;;;;;;;;26.20;93.30;;;;;;5071548;28;20367;-46
2022/09/05 09:56:21;;;;;;;;;;;26.40;93.10;;;;;;5071037;28;19928;-45
2022/09/05 09:58:53;;;;;;;;;;;26.40;93.30;;;;;;5071855;28;20017;-48
2022/09/05 10:01:37;;;;;;;;;;;26.40;92.90;;;;;;5071383;28;19920;-50
2022/09/05 10:04:21;;;;;;;;;;;26.60;93.00;;;;;;5071951;28;19920;-45
2022/09/05 10:07:01;;;;;;;;;;;26.60;92.00;;;;;;5071245;28;19923;-51
2022/09/05 10:09:46;;;;;;;;;;;26.70;92.40;;;;;;5071525;28;20276;-47
2022/09/05 10:12:17;;;;;;;;;;;26.90;92.30;;;;;;5071570;28;19923;-48
2022/09/05 10:14:55;;;;;;;;;;;27.10;92.10;;;;;;5071609;28;20378;-49
2022/09/05 10:17:45;;;;;;;;;;;27.10;92.00;;;;;;5071115;28;19920;-46
2022/09/05 10:20:13;;;;;;;;;;;27.20;91.40;;;;;;5071051;28;19920;-48
2022/09/05 10:22:50;;;;;;;;;;;27.30;90.90;;;;;;5071435;28;20015;-45
2022/09/05 10:25:34;;;;;;;;;;;27.30;90.70;;;;;;5070848;28;19970;-46
2022/09/05 10:28:12;;;;;;;;;;;27.40;90.40;;;;;;5068403;28;19923;-48
2022/09/05 10:30:58;;;;;;;;;;;27.40;90.20;;;;;;5070758;28;20478;-47
2022/09/05 10:33:46;;;;;;;;;;;27.40;88.70;;;;;;5071345;28;19923;-47
2022/09/05 10:36:15;;;;;;;;;;;27.50;90.20;;;;;;5070524;28;20282;-46
2022/09/05 10:38:43;;;;;;;;;;;27.60;90.30;;;;;;5071037;28;20276;-52
2022/09/05 10:41:10;;;;;;;;;;;27.80;89.60;;;;;;5070960;28;19916;-48
2022/09/05 10:43:43;;;;;;;;;;;27.80;89.10;;;;;;5069770;28;20295;-46
2022/09/05 10:46:22;;;;;;;;;;;27.90;88.10;;;;;;5070342;28;19924;-49
2022/09/05 10:48:52;;;;;;;;;;;27.90;86.90;;;;;;5070310;28;19928;-47
2022/09/05 10:51:21;;;;;;;;;;;28.00;87.60;;;;;;5071036;28;20383;-51
2022/09/05 10:54:05;;;;;;;;;;;28.00;88.00;;;;;;5070872;28;20287;-46
2022/09/05 10:56:38;;;;;;;;;;;28.20;86.80;;;;;;5069474;28;19928;-50
2022/09/05 10:59:07;;;;;;;;;;;28.40;87.30;;;;;;5071112;28;19916;-47
2022/09/05 11:01:38;;;;;;;;;;;28.40;86.60;;;;;;5070635;28;20506;-47
2022/09/05 11:04:12;;;;;;;;;;;28.70;85.90;;;;;;5070530;28;20012;-49
2022/09/05 11:06:38;;;;;;;;;;;28.90;85.50;;;;;;5070180;28;19920;-48
2022/09/05 11:09:11;;;;;;;;;;;28.90;83.40;;;;;;5070247;28;20283;-47
2022/09/05 11:11:44;;;;;;;;;;;29.00;85.70;;;;;;5069036;28;19926;-47
2022/09/05 11:14:21;;;;;;;;;;;29.10;83.70;;;;;;5070396;28;20447;-49
2022/09/05 11:16:53;;;;;;;;;;;29.30;81.90;;;;;;5069819;28;20003;-48
2022/09/05 11:19:27;;;;;;;;;;;29.20;80.60;;;;;;5069781;28;19920;-50
2022/09/05 11:22:03;;;;;;;;;;;29.30;82.80;;;;;;5070096;28;19916;-47
2022/09/05 11:24:37;;;;;;;;;;;29.30;80.30;;;;;;5070289;28;19924;-47
2022/09/05 11:27:16;;;;;;;;;;;29.30;79.40;;;;;;5069497;28;19916;-50
2022/09/05 11:29:41;;;;;;;;;;;29.30;80.40;;;;;;5069702;28;20002;-47
2022/09/05 11:32:26;;;;;;;;;;;29.00;80.70;;;;;;5070388;28;20010;-49
2022/09/05 11:34:51;;;;;;;;;;;29.40;81.10;;;;;;5069509;28;19978;-48
2022/09/05 11:37:25;;;;;;;;;;;29.80;78.60;;;;;;5068018;28;19920;-48
2022/09/05 11:39:54;;;;;;;;;;;30.10;79.50;;;;;;5069887;28;19917;-50
2022/09/05 11:42:25;;;;;;;;;;;30.10;77.60;;;;;;5070365;28;20332;-52
2022/09/05 11:44:51;;;;;;;;;;;30.10;76.60;;;;;;5069922;28;19916;-47
2022/09/05 11:47:35;;;;;;;;;;;30.40;78.00;;;;;;5069780;28;19924;-49
2022/09/05 11:50:07;;;;;;;;;;;30.60;77.50;;;;;;5069293;28;19927;-46
2022/09/05 11:52:50;;;;;;;;;;;30.60;78.40;;;;;;5069880;28;20364;-46
2022/09/05 11:55:21;;;;;;;;;;;30.70;76.80;;;;;;5069631;28;20528;-45
2022/09/05 11:57:47;;;;;;;;;;;30.70;76.80;;;;;;5068277;28;19920;-47
2022/09/05 12:00:21;;;;;;;;;;;30.60;75.00;;;;;;5069194;28;20264;-49
2022/09/05 12:03:05;;;;;;;;;;;30.60;76.50;;;;;;5069791;28;19920;-49
2022/09/05 12:05:39;;;;;;;;;;;30.50;76.30;;;;;;5069853;28;19923;-46
2022/09/05 12:08:11;;;;;;;;;;;30.10;77.20;;;;;;5069651;28;19927;-47
2022/09/05 12:10:39;;;;;;;;;;;29.90;76.50;;;;;;5068029;28;19948;-51
2022/09/05 12:13:12;;;;;;;;;;;29.80;76.60;;;;;;5069947;28;19916;-49
2022/09/05 12:15:44;;;;;;;;;;;29.80;77.50;;;;;;5069539;28;19925;-46
2022/09/05 12:18:33;;;;;;;;;;;29.90;77.10;;;;;;5069441;28;20830;-46
2022/09/05 12:21:16;;;;;;;;;;;30.00;76.70;;;;;;5063210;28;19999;-51
2022/09/05 12:23:47;;;;;;;;;;;29.90;78.30;;;;;;5069791;28;20275;-48
2022/09/05 12:26:19;;;;;;;;;;;29.80;77.50;;;;;;5067449;28;19965;-51
2022/09/05 12:28:49;;;;;;;;;;;30.10;79.10;;;;;;5069606;28;20351;-50
2022/09/05 12:31:14;;;;;;;;;;;30.10;78.20;;;;;;5069481;28;19927;-46
2022/09/05 12:33:42;;;;;;;;;;;30.10;78.50;;;;;;5069470;28;19917;-49
2022/09/05 12:36:08;;;;;;;;;;;29.90;78.50;;;;;;5068870;28;20015;-45
2022/09/05 12:38:42;;;;;;;;;;;30.10;78.40;;;;;;5069563;28;19924;-48
2022/09/05 12:41:14;;;;;;;;;;;30.30;77.80;;;;;;5069319;28;19916;-50
2022/09/05 12:43:44;;;;;;;;;;;29.90;76.60;;;;;;5068929;28;19920;-47
2022/09/05 12:46:25;;;;;;;;;;;29.80;76.30;;;;;;5069357;28;20359;-48
2022/09/05 12:48:53;;;;;;;;;;;29.50;75.90;;;;;;5069029;28;19924;-47
2022/09/05 12:51:20;;;;;;;;;;;29.50;77.40;;;;;;5072036;28;20264;-47
2022/09/05 12:53:49;;;;;;;;;;;29.70;77.60;;;;;;5072897;28;19917;-49
2022/09/05 12:56:20;;;;;;;;;;;29.90;75.80;;;;;;5072030;28;19959;-46
2022/09/05 12:58:48;;;;;;;;;;;30.00;75.80;;;;;;5071351;28;19916;-46
2022/09/05 13:01:16;;;;;;;;;;;30.20;76.60;;;;;;5072829;28;20367;-49
2022/09/05 13:03:50;;;;;;;;;;;30.50;76.40;;;;;;5072768;28;20444;-50
2022/09/05 13:06:22;;;;;;;;;;;30.80;75.40;;;;;;5072094;28;20050;-50
2022/09/05 13:08:49;;;;;;;;;;;31.10;73.70;;;;;;5072852;28;19936;-48
2022/09/05 13:11:18;;;;;;;;;;;31.30;74.10;;;;;;5072166;28;19917;-49
2022/09/05 13:13:47;;;;;;;;;;;31.50;72.60;;;;;;5072486;28;19952;-50
2022/09/05 13:16:31;;;;;;;;;;;31.80;73.10;;;;;;5071701;28;20356;-46
2022/09/05 13:19:06;;;;;;;;;;;32.00;72.10;;;;;;5072683;28;19923;-49
2022/09/05 13:21:36;;;;;;;;;;;32.20;73.40;;;;;;5072427;28;20326;-50
2022/09/05 13:24:10;;;;;;;;;;;32.10;72.70;;;;;;5072719;28;19921;-51
2022/09/05 13:26:42;;;;;;;;;;;32.00;72.70;;;;;;5071411;28;19968;-48
2022/09/05 13:29:18;;;;;;;;;;;31.90;71.40;;;;;;5072561;28;20415;-47
2022/09/05 13:31:49;;;;;;;;;;;31.40;72.90;;;;;;5070733;28;19969;-48
2022/09/05 13:34:21;;;;;;;;;;;31.20;72.40;;;;;;5072306;28;21502;-49
2022/09/05 13:36:55;;;;;;;;;;;31.50;73.70;;;;;;5071759;28;19924;-48
2022/09/05 13:39:26;;;;;;;;;;;32.10;74.40;;;;;;5072440;28;19924;-49
2022/09/05 13:41:58;;;;;;;;;;;32.60;73.20;;;;;;5072190;28;19927;-48
2022/09/05 13:44:24;;;;;;;;;;;32.80;71.30;;;;;;5072000;28;20386;-45
2022/09/05 13:47:02;;;;;;;;;;;32.80;70.00;;;;;;5071708;28;19916;-47
2022/09/05 13:49:35;;;;;;;;;;;32.70;71.70;;;;;;5071622;28;19967;-51
2022/09/05 13:52:19;;;;;;;;;;;33.20;71.10;;;;;;5071761;28;19924;-46
2022/09/05 13:54:59;;;;;;;;;;;32.60;68.90;;;;;;5072124;28;19921;-47
2022/09/05 13:57:24;;;;;;;;;;;32.90;69.40;;;;;;5071314;28;20350;-49
2022/09/05 14:00:05;;;;;;;;;;;33.00;70.20;;;;;;5071310;28;19969;-50
2022/09/05 14:02:49;;;;;;;;;;;33.30;69.50;;;;;;5071290;28;19917;-49
2022/09/05 14:05:21;;;;;;;;;;;33.60;68.70;;;;;;5071702;28;20061;-50
2022/09/05 14:07:52;;;;;;;;;;;33.60;68.10;;;;;;5071524;28;20351;-47
2022/09/05 14:10:36;;;;;;;;;;;33.70;69.00;;;;;;5069991;28;20208;-46
2022/09/05 14:13:23;;;;;;;;;;;33.80;69.30;;;;;;5071592;28;20344;-49
2022/09/05 14:15:48;;;;;;;;;;;33.90;68.90;;;;;;5069716;28;19924;-50
2022/09/05 14:18:16;;;;;;;;;;;34.00;67.60;;;;;;5071491;28;19924;-49
2022/09/05 14:23:35;;;;;;;;;;;33.50;68.70;;;;;;5071566;28;20005;-51
2022/09/05 14:26:03;;;;;;;;;;;33.30;67.00;;;;;;5070535;28;19920;-52
2022/09/05 14:28:34;;;;;;;;;;;33.10;68.10;;;;;;5070859;28;20367;-48
2022/09/05 14:31:06;;;;;;;;;;;33.30;68.10;;;;;;5069586;28;19932;-47
2022/09/05 14:33:40;;;;;;;;;;;33.20;68.40;;;;;;5071187;28;19916;-48
2022/09/05 14:36:21;;;;;;;;;;;33.20;67.40;;;;;;5070124;28;20387;-48
2022/09/05 14:39:05;;;;;;;;;;;33.40;68.00;;;;;;5069521;28;19999;-49
2022/09/05 14:41:37;;;;;;;;;;;33.40;67.30;;;;;;5070968;28;19965;-47
2022/09/05 14:44:29;;;;;;;;;;;33.30;66.70;;;;;;5070929;28;20234;-48
2022/09/05 14:47:08;;;;;;;;;;;33.50;66.80;;;;;;5070356;28;19916;-47
2022/09/05 14:49:43;;;;;;;;;;;33.30;67.30;;;;;;5070379;28;19924;-51
2022/09/05 14:52:28;;;;;;;;;;;33.60;67.70;;;;;;5069680;28;20403;-49
2022/09/05 14:54:58;;;;;;;;;;;33.60;68.40;;;;;;5070212;28;20272;-50
2022/09/05 14:57:35;;;;;;;;;;;33.70;67.50;;;;;;5069865;28;20027;-48
2022/09/05 15:00:04;;;;;;;;;;;33.80;68.50;;;;;;5070555;28;19927;-47